Time;durP1;ratioP1;P1;durP2;ratioP2;P2;SDS_P1;SDS_P2;PMS_P1;PMS_P2;Temp;Humidity;BMP_temperature;BMP_pressure;BME280_temperature;BME280_humidity;BME280_pressure;Samples;Min_cycle;Max_cycle;Signal;HPM_P1;HPM_P2
2024/03/17 00:01:38;;;;;;;18.48;14.90;;;4.70;99.90;;;;;;4948107;28;20035;-69
2024/03/17 00:04:04;;;;;;;20.38;15.00;;;4.50;99.90;;;;;;4963663;28;20054;-68
2024/03/17 00:06:31;;;;;;;17.45;14.50;;;4.50;99.90;;;;;;4946900;28;20043;-68
2024/03/17 00:08:57;;;;;;;18.85;13.63;;;4.50;99.90;;;;;;4952510;28;20707;-66
2024/03/17 00:11:23;;;;;;;15.80;14.15;;;4.30;99.90;;;;;;4968991;28;20064;-67
2024/03/17 00:13:49;;;;;;;15.43;14.02;;;4.20;99.90;;;;;;4970804;28;20105;-71
2024/03/17 00:16:18;;;;;;;20.58;13.88;;;4.20;99.90;;;;;;4966484;28;20039;-70
2024/03/17 00:18:46;;;;;;;18.00;13.93;;;4.10;99.90;;;;;;4983467;28;20053;-70
2024/03/17 00:21:13;;;;;;;17.25;13.40;;;3.90;99.90;;;;;;4969458;28;20585;-70
2024/03/17 00:23:39;;;;;;;22.65;11.02;;;3.90;99.90;;;;;;4951780;28;20069;-70
2024/03/17 00:26:05;;;;;;;18.50;10.80;;;3.60;99.90;;;;;;4966360;28;20038;-70
2024/03/17 00:28:31;;;;;;;13.93;9.88;;;3.50;99.90;;;;;;4962680;28;20499;-70
2024/03/17 00:30:57;;;;;;;13.68;10.32;;;3.40;99.90;;;;;;4952526;28;21367;-70
2024/03/17 00:33:24;;;;;;;25.77;10.50;;;3.40;99.90;;;;;;4973060;28;20511;-70
2024/03/17 00:35:51;;;;;;;18.40;10.82;;;3.50;99.90;;;;;;4949911;28;20551;-70
2024/03/17 00:38:17;;;;;;;19.15;10.38;;;3.40;99.90;;;;;;4971191;28;20727;-70
2024/03/17 00:40:45;;;;;;;16.08;11.00;;;3.30;99.90;;;;;;4966596;28;20535;-70
2024/03/17 00:43:14;;;;;;;21.27;11.50;;;3.20;99.90;;;;;;4949605;28;20069;-70
2024/03/17 00:45:40;;;;;;;18.23;11.48;;;3.10;99.90;;;;;;4954553;28;20466;-69
2024/03/17 00:48:06;;;;;;;19.63;11.15;;;3.10;99.90;;;;;;4947785;28;20116;-70
2024/03/17 00:50:32;;;;;;;17.10;11.95;;;3.00;99.90;;;;;;4975842;28;20038;-71
2024/03/17 00:53:00;;;;;;;23.35;12.57;;;3.10;99.90;;;;;;4957669;28;20046;-70
2024/03/17 00:55:26;;;;;;;25.73;12.13;;;3.10;99.90;;;;;;4970132;28;20863;-70
2024/03/17 00:57:54;;;;;;;16.35;12.80;;;3.10;99.90;;;;;;4958109;28;20041;-70
2024/03/17 01:00:20;;;;;;;21.48;14.05;;;3.00;99.90;;;;;;4975636;28;20064;-70
2024/03/17 01:02:46;;;;;;;15.05;12.00;;;2.80;99.90;;;;;;4969815;28;20255;-70
2024/03/17 01:05:12;;;;;;;23.20;13.75;;;2.70;99.90;;;;;;4968190;28;20046;-70
2024/03/17 01:07:38;;;;;;;18.60;13.50;;;2.70;99.90;;;;;;4968495;28;20043;-71
2024/03/17 01:10:07;;;;;;;23.35;13.90;;;2.70;99.90;;;;;;4950822;28;20045;-70
2024/03/17 01:12:35;;;;;;;17.40;13.75;;;2.90;99.90;;;;;;4953088;28;20065;-70
2024/03/17 01:15:04;;;;;;;22.75;13.30;;;2.90;99.90;;;;;;4937604;28;20050;-69
2024/03/17 01:17:30;;;;;;;20.70;12.80;;;2.70;99.90;;;;;;4969997;28;20054;-69
2024/03/17 01:19:57;;;;;;;23.13;12.43;;;2.80;99.90;;;;;;4951126;28;20047;-70
2024/03/17 01:22:23;;;;;;;24.13;11.93;;;2.60;99.90;;;;;;4975183;28;20129;-70
2024/03/17 01:24:49;;;;;;;14.55;10.88;;;2.50;99.90;;;;;;4957678;28;20050;-71
2024/03/17 01:27:16;;;;;;;14.93;10.98;;;2.40;99.90;;;;;;4953260;28;20068;-69
2024/03/17 01:29:45;;;;;;;25.40;11.75;;;2.40;99.90;;;;;;4940558;28;20057;-70
2024/03/17 01:32:11;;;;;;;17.67;11.73;;;2.40;99.90;;;;;;4948053;28;20076;-70
2024/03/17 01:34:38;;;;;;;24.70;12.80;;;2.40;99.90;;;;;;4954317;28;20047;-70
2024/03/17 01:37:04;;;;;;;24.17;11.07;;;2.40;99.90;;;;;;4953410;28;20630;-69
2024/03/17 01:39:31;;;;;;;18.73;11.45;;;2.40;99.90;;;;;;4955914;28;20124;-70
2024/03/17 01:41:58;;;;;;;22.30;11.30;;;2.30;99.90;;;;;;4968773;28;20050;-70
2024/03/17 01:44:29;;;;;;;19.73;11.10;;;2.30;99.90;;;;;;4953992;28;20049;-70
2024/03/17 01:46:56;;;;;;;17.73;11.55;;;2.30;99.90;;;;;;4973756;28;20133;-70
2024/03/17 01:49:26;;;;;;;19.50;11.43;;;2.10;99.90;;;;;;4938283;28;20039;-70
2024/03/17 01:51:53;;;;;;;15.93;11.23;;;2.00;99.90;;;;;;4966474;28;20038;-69
2024/03/17 01:54:20;;;;;;;16.23;10.60;;;2.10;99.90;;;;;;4938325;28;20065;-70
2024/03/17 01:56:47;;;;;;;17.95;11.07;;;2.10;99.90;;;;;;4955149;28;20054;-69
2024/03/17 01:59:14;;;;;;;20.13;11.43;;;1.90;99.90;;;;;;4966849;28;20042;-70
2024/03/17 02:01:40;;;;;;;20.02;11.93;;;2.00;99.90;;;;;;4953165;28;20051;-71
2024/03/17 02:04:08;;;;;;;15.63;11.35;;;2.10;99.90;;;;;;4950692;28;20058;-70
2024/03/17 02:06:34;;;;;;;24.35;13.20;;;1.90;99.90;;;;;;4955056;28;20117;-69
2024/03/17 02:09:01;;;;;;;21.40;12.55;;;1.80;99.90;;;;;;4974202;28;20041;-70
2024/03/17 02:11:32;;;;;;;20.85;13.43;;;1.90;99.90;;;;;;4955076;28;20047;-71
2024/03/17 02:14:01;;;;;;;22.15;12.95;;;1.80;99.90;;;;;;4951042;28;20064;-70
2024/03/17 02:16:28;;;;;;;13.70;12.40;;;1.80;99.90;;;;;;4972322;28;20077;-70
2024/03/17 02:18:55;;;;;;;15.48;13.00;;;1.80;99.90;;;;;;4955656;28;20043;-70
2024/03/17 02:21:27;;;;;;;17.38;13.40;;;1.70;99.90;;;;;;4958595;28;20047;-69
2024/03/17 02:23:54;;;;;;;22.38;13.05;;;1.70;99.90;;;;;;4969170;28;20050;-70
2024/03/17 02:26:22;;;;;;;15.85;13.07;;;1.80;99.90;;;;;;4959716;28;20511;-70
2024/03/17 02:28:49;;;;;;;21.15;13.95;;;1.80;99.90;;;;;;4957876;28;20153;-70
2024/03/17 02:31:16;;;;;;;19.33;13.50;;;1.70;99.90;;;;;;4956850;28;20049;-69
2024/03/17 02:33:44;;;;;;;17.67;13.27;;;1.70;99.90;;;;;;4956494;28;20058;-68
2024/03/17 02:36:12;;;;;;;18.20;13.07;;;1.70;99.90;;;;;;4969198;28;20044;-69
2024/03/17 02:41:24;;;;;;;29.30;13.07;;;1.60;99.90;;;;;;4976015;28;20042;-70
2024/03/17 02:43:50;;;;;;;22.63;14.55;;;1.60;99.90;;;;;;4959138;28;20108;-71
2024/03/17 02:46:18;;;;;;;21.17;14.20;;;1.60;99.90;;;;;;4940527;28;20038;-70
2024/03/17 02:48:48;;;;;;;30.38;17.05;;;1.70;99.90;;;;;;4955329;28;20050;-70
2024/03/17 02:51:17;;;;;;;24.70;16.17;;;1.50;99.90;;;;;;4951885;28;20047;-70
2024/03/17 02:53:45;;;;;;;19.20;15.60;;;1.40;99.90;;;;;;4971805;28;20066;-70
2024/03/17 02:56:12;;;;;;;22.70;17.67;;;1.40;99.90;;;;;;4967251;28;20042;-69
2024/03/17 02:58:39;;;;;;;24.05;15.02;;;1.20;99.90;;;;;;4959476;28;20050;-70
2024/03/17 03:01:06;;;;;;;19.13;16.83;;;1.30;99.90;;;;;;4971349;28;20507;-69
2024/03/17 03:03:33;;;;;;;20.42;16.38;;;1.20;99.90;;;;;;4964647;28;20069;-70
2024/03/17 03:06:04;;;;;;;19.50;17.30;;;1.30;99.90;;;;;;4962888;28;20042;-70
2024/03/17 03:08:30;;;;;;;19.02;17.13;;;1.10;99.90;;;;;;4955812;28;20113;-68
2024/03/17 03:10:56;;;;;;;23.13;17.95;;;1.20;99.90;;;;;;4952068;28;20943;-69
2024/03/17 03:13:23;;;;;;;25.48;18.25;;;1.30;99.90;;;;;;4968346;28;20043;-70
2024/03/17 03:15:49;;;;;;;22.70;18.02;;;1.40;99.90;;;;;;4953645;28;20651;-70
2024/03/17 03:18:15;;;;;;;27.48;17.98;;;1.30;99.90;;;;;;4965929;28;20051;-70
2024/03/17 03:20:41;;;;;;;40.75;21.15;;;1.20;99.90;;;;;;4951741;28;20050;-70
2024/03/17 03:23:07;;;;;;;25.70;18.48;;;1.20;99.90;;;;;;4964581;28;20550;-69
2024/03/17 03:25:34;;;;;;;27.58;18.65;;;1.00;99.90;;;;;;4952034;28;20124;-69
2024/03/17 03:28:01;;;;;;;27.17;20.17;;;0.90;99.90;;;;;;4953367;28;20054;-69
2024/03/17 03:30:28;;;;;;;26.70;20.73;;;1.00;99.90;;;;;;4970883;28;20042;-69
2024/03/17 03:32:55;;;;;;;30.25;21.48;;;0.90;99.90;;;;;;4977451;28;20042;-68
2024/03/17 03:35:21;;;;;;;31.00;20.95;;;0.90;99.90;;;;;;4974886;28;20050;-69
2024/03/17 03:37:47;;;;;;;22.17;19.70;;;0.80;99.90;;;;;;4952838;28;20054;-69
2024/03/17 03:40:16;;;;;;;34.75;21.77;;;0.70;99.90;;;;;;4966676;28;20051;-69
2024/03/17 03:42:43;;;;;;;26.55;22.25;;;0.70;99.90;;;;;;4978935;28;20046;-70
2024/03/17 03:45:12;;;;;;;32.55;22.48;;;0.80;99.90;;;;;;4969267;28;20059;-69
2024/03/17 03:47:40;;;;;;;30.33;22.23;;;0.80;99.90;;;;;;4950745;28;20492;-69
2024/03/17 03:50:21;;;;;;;27.23;22.60;;;0.70;99.90;;;;;;4953205;28;20117;-71
2024/03/17 03:52:47;;;;;;;30.60;21.48;;;0.60;99.90;;;;;;4954008;28;20050;-68
2024/03/17 03:55:16;;;;;;;31.38;23.17;;;0.70;99.90;;;;;;4940021;28;20058;-68
2024/03/17 03:57:46;;;;;;;24.33;21.73;;;0.90;99.90;;;;;;4945893;28;20035;-70
2024/03/17 04:00:13;;;;;;;30.40;21.13;;;1.00;99.90;;;;;;4954409;28;20050;-69
2024/03/17 04:02:39;;;;;;;36.88;23.10;;;1.10;99.90;;;;;;4956439;28;20049;-70
2024/03/17 04:05:06;;;;;;;25.35;20.48;;;1.10;99.90;;;;;;4968928;28;20050;-68
2024/03/17 04:07:32;;;;;;;27.17;20.95;;;0.90;99.90;;;;;;4954952;28;20484;-70
2024/03/17 04:09:58;;;;;;;33.15;21.92;;;0.90;99.90;;;;;;4957426;28;20058;-69
2024/03/17 04:12:25;;;;;;;28.98;22.27;;;0.80;99.90;;;;;;4957456;28;20053;-69
2024/03/17 04:14:53;;;;;;;28.15;22.83;;;0.70;99.90;;;;;;4958000;28;20058;-69
2024/03/17 04:17:23;;;;;;;24.58;20.58;;;0.80;99.90;;;;;;4963975;28;20812;-70
2024/03/17 04:19:53;;;;;;;32.85;23.30;;;0.90;99.90;;;;;;4961195;28;20047;-69
2024/03/17 04:22:20;;;;;;;29.60;21.27;;;0.90;99.90;;;;;;4943488;28;20042;-70
2024/03/17 04:24:48;;;;;;;25.35;20.85;;;0.80;99.90;;;;;;4978974;28;20050;-70
2024/03/17 04:27:14;;;;;;;27.70;21.25;;;0.80;99.90;;;;;;4966291;28;20058;-69
2024/03/17 04:29:40;;;;;;;30.77;21.23;;;0.90;99.90;;;;;;4948920;28;20051;-69
2024/03/17 04:32:07;;;;;;;27.52;20.08;;;1.10;99.90;;;;;;4949678;28;20053;-69
2024/03/17 04:34:32;;;;;;;31.55;21.23;;;1.10;99.90;;;;;;4962298;28;20042;-69
2024/03/17 04:36:59;;;;;;;23.88;19.60;;;0.90;99.90;;;;;;4939696;28;20051;-69
2024/03/17 04:39:25;;;;;;;22.80;19.63;;;0.90;99.90;;;;;;4954917;28;20080;-69
2024/03/17 04:41:52;;;;;;;25.38;19.77;;;0.80;99.90;;;;;;4954599;28;20041;-70
2024/03/17 04:44:18;;;;;;;27.85;18.65;;;0.80;99.90;;;;;;4953938;28;20062;-69
2024/03/17 04:46:44;;;;;;;27.20;18.10;;;0.80;99.90;;;;;;4958894;28;20073;-69
2024/03/17 04:49:10;;;;;;;20.77;18.17;;;0.80;99.90;;;;;;4957112;28;20054;-69
2024/03/17 04:51:36;;;;;;;23.10;17.98;;;0.80;99.90;;;;;;4963695;28;20693;-68
2024/03/17 04:54:07;;;;;;;27.60;19.25;;;0.80;99.90;;;;;;4953405;28;20050;-70
2024/03/17 04:56:33;;;;;;;25.05;19.15;;;0.80;99.90;;;;;;4947571;28;20098;-70
2024/03/17 04:58:59;;;;;;;24.42;18.92;;;0.90;99.90;;;;;;4960808;28;20691;-69
2024/03/17 05:01:25;;;;;;;27.15;19.25;;;0.80;99.90;;;;;;4938504;28;20046;-69
2024/03/17 05:03:52;;;;;;;21.70;18.52;;;0.90;99.90;;;;;;4966850;28;20535;-69
2024/03/17 05:06:18;;;;;;;20.63;18.42;;;0.80;99.90;;;;;;4966103;28;20039;-68
2024/03/17 05:08:45;;;;;;;27.08;18.60;;;1.00;99.90;;;;;;4953581;28;20050;-69
2024/03/17 05:11:11;;;;;;;28.98;17.83;;;0.90;99.90;;;;;;4966777;28;20045;-69
2024/03/17 05:13:40;;;;;;;24.77;17.58;;;0.90;99.90;;;;;;4962028;28;20099;-69
2024/03/17 05:16:07;;;;;;;29.15;16.45;;;0.80;99.90;;;;;;4965754;28;20053;-70
2024/03/17 05:18:33;;;;;;;23.70;16.02;;;0.70;99.90;;;;;;4952477;28;20058;-69
2024/03/17 05:21:04;;;;;;;32.92;17.05;;;0.90;99.90;;;;;;4969113;28;20034;-69
2024/03/17 05:23:32;;;;;;;28.42;16.23;;;0.80;99.90;;;;;;4946429;28;20286;-68
2024/03/17 05:25:59;;;;;;;19.17;14.75;;;0.80;99.90;;;;;;4969696;28;20093;-69
2024/03/17 05:28:26;;;;;;;24.17;17.20;;;0.90;99.90;;;;;;4949421;28;20090;-69
2024/03/17 05:30:53;;;;;;;24.45;16.20;;;0.90;99.90;;;;;;4953927;28;20139;-69
2024/03/17 05:33:21;;;;;;;21.33;16.63;;;0.90;99.90;;;;;;4951168;28;20131;-69
2024/03/17 05:35:58;;;;;;;26.95;15.93;;;0.90;99.90;;;;;;4942890;28;20050;-69
2024/03/17 05:38:28;;;;;;;24.58;15.90;;;0.80;99.90;;;;;;4931060;28;20057;-70
2024/03/17 05:40:59;;;;;;;24.60;15.70;;;0.90;99.90;;;;;;4959652;28;20072;-69
2024/03/17 05:43:32;;;;;;;24.00;16.25;;;0.70;99.90;;;;;;4947814;28;20289;-70
2024/03/17 05:46:01;;;;;;;22.60;19.02;;;0.70;99.90;;;;;;4944528;28;20551;-69
2024/03/17 05:48:27;;;;;;;22.05;18.35;;;0.60;99.90;;;;;;4953860;28;20049;-70
2024/03/17 05:50:53;;;;;;;23.98;19.05;;;0.60;99.90;;;;;;4947883;28;20054;-70
2024/03/17 05:53:21;;;;;;;26.23;18.05;;;0.50;99.90;;;;;;4956904;28;20085;-69
2024/03/17 05:55:47;;;;;;;22.15;18.20;;;0.60;99.90;;;;;;4968554;28;20037;-70
2024/03/17 05:58:13;;;;;;;30.92;20.63;;;0.50;99.90;;;;;;4952272;28;20050;-70
2024/03/17 06:00:40;;;;;;;25.02;20.35;;;0.50;99.90;;;;;;4954959;28;20600;-69
2024/03/17 06:03:06;;;;;;;26.10;21.05;;;0.60;99.90;;;;;;4956076;28;20042;-69
2024/03/17 06:05:38;;;;;;;25.33;20.55;;;0.50;99.90;;;;;;4948392;28;20065;-70
2024/03/17 06:08:05;;;;;;;25.27;21.00;;;0.50;99.90;;;;;;4939061;28;20069;-69
2024/03/17 06:10:33;;;;;;;26.52;22.15;;;0.60;99.90;;;;;;4952465;28;20042;-69
2024/03/17 06:12:59;;;;;;;24.60;20.73;;;0.60;99.90;;;;;;4953362;28;20057;-68
2024/03/17 06:15:26;;;;;;;24.55;20.85;;;0.70;99.90;;;;;;4969069;28;20046;-69
2024/03/17 06:17:53;;;;;;;23.92;21.30;;;0.80;99.90;;;;;;4985753;28;20045;-68
2024/03/17 06:20:26;;;;;;;32.35;21.95;;;1.00;99.90;;;;;;4973128;28;20050;-70
2024/03/17 06:22:56;;;;;;;24.95;22.05;;;1.00;99.90;;;;;;4953398;28;20046;-72
2024/03/17 06:25:25;;;;;;;23.92;20.83;;;0.90;99.90;;;;;;4945423;28;20050;-69
2024/03/17 06:27:52;;;;;;;26.45;20.92;;;1.00;99.90;;;;;;4947278;28;20109;-70
2024/03/17 06:30:18;;;;;;;23.98;21.45;;;1.00;99.90;;;;;;4950572;28;20062;-70
2024/03/17 06:32:45;;;;;;;24.48;21.88;;;1.10;99.90;;;;;;4954205;28;20060;-70
2024/03/17 06:35:15;;;;;;;27.13;22.83;;;1.20;99.90;;;;;;4967972;28;20062;-68
2024/03/17 06:37:42;;;;;;;27.83;22.23;;;1.20;99.90;;;;;;4965420;28;21521;-69
2024/03/17 06:40:13;;;;;;;35.05;25.45;;;1.30;99.90;;;;;;4939910;28;20133;-69
2024/03/17 06:42:39;;;;;;;27.63;24.13;;;1.30;99.90;;;;;;4970028;28;20058;-69
2024/03/17 06:45:08;;;;;;;33.05;24.05;;;1.40;99.90;;;;;;4949132;28;20065;-69
2024/03/17 06:47:35;;;;;;;37.55;25.27;;;1.50;99.90;;;;;;4965092;28;20638;-69
2024/03/17 06:50:03;;;;;;;30.17;23.33;;;1.60;99.90;;;;;;4938613;28;20065;-69
2024/03/17 06:52:29;;;;;;;28.90;23.88;;;1.70;99.90;;;;;;4951839;28;20052;-71
2024/03/17 06:54:56;;;;;;;34.42;24.08;;;1.80;99.90;;;;;;4955635;28;20107;-70
2024/03/17 06:57:22;;;;;;;36.40;27.45;;;1.90;99.90;;;;;;4948755;28;20038;-70
2024/03/17 06:59:48;;;;;;;39.05;29.52;;;2.00;99.90;;;;;;4955564;28;21253;-70
2024/03/17 07:02:17;;;;;;;30.55;24.92;;;2.10;99.90;;;;;;4950668;28;20043;-70
2024/03/17 07:04:44;;;;;;;37.30;27.10;;;2.40;99.90;;;;;;4944800;28;20632;-71
2024/03/17 07:07:12;;;;;;;35.53;25.77;;;2.60;99.90;;;;;;4951655;28;20380;-69
2024/03/17 07:09:39;;;;;;;36.05;25.55;;;2.70;99.90;;;;;;4948764;28;20081;-69
2024/03/17 07:12:10;;;;;;;34.97;24.08;;;2.90;99.90;;;;;;4948711;28;20053;-70
2024/03/17 07:14:36;;;;;;;37.10;23.25;;;2.80;99.90;;;;;;4965852;28;20053;-69
2024/03/17 07:17:03;;;;;;;33.50;22.45;;;2.90;99.90;;;;;;4969506;28;20035;-70
2024/03/17 07:19:30;;;;;;;38.47;21.30;;;3.00;99.90;;;;;;4936561;28;20050;-70
2024/03/17 07:22:00;;;;;;;34.13;22.55;;;3.20;99.90;;;;;;4974862;28;20038;-69
2024/03/17 07:24:27;;;;;;;31.20;19.75;;;3.20;99.90;;;;;;4956651;28;20666;-70
2024/03/17 07:26:53;;;;;;;26.67;19.55;;;3.30;99.90;;;;;;4935953;28;20092;-70
2024/03/17 07:29:19;;;;;;;42.55;22.40;;;3.50;99.90;;;;;;4970915;28;20226;-70
2024/03/17 07:31:45;;;;;;;36.20;22.42;;;3.70;99.90;;;;;;4966560;28;20590;-70
2024/03/17 07:34:11;;;;;;;27.95;20.67;;;3.80;99.90;;;;;;4968869;28;20501;-70
2024/03/17 07:36:39;;;;;;;33.17;22.17;;;3.90;99.90;;;;;;4971529;28;20051;-70
2024/03/17 07:39:07;;;;;;;35.92;22.33;;;4.10;99.90;;;;;;4950402;28;20042;-70
2024/03/17 07:41:33;;;;;;;34.05;22.13;;;4.30;99.90;;;;;;4965856;28;20746;-70
2024/03/17 07:43:59;;;;;;;34.65;22.90;;;4.40;99.90;;;;;;4952503;28;20058;-70
2024/03/17 07:46:25;;;;;;;27.83;22.35;;;4.50;99.90;;;;;;4971520;28;20042;-69
2024/03/17 07:48:51;;;;;;;33.40;23.70;;;4.70;99.90;;;;;;4947077;28;20073;-70
2024/03/17 07:51:18;;;;;;;33.85;25.33;;;4.80;99.90;;;;;;4954724;28;20508;-70
2024/03/17 07:53:47;;;;;;;33.75;26.17;;;5.10;99.90;;;;;;4968212;28;20058;-71
2024/03/17 07:56:15;;;;;;;36.78;29.67;;;5.40;99.90;;;;;;4952614;28;20531;-70
2024/03/17 07:58:43;;;;;;;37.33;33.50;;;5.90;99.90;;;;;;4952977;28;20097;-70
2024/03/17 08:01:11;;;;;;;45.30;37.63;;;6.60;99.90;;;;;;4954804;28;20068;-69
2024/03/17 08:03:44;;;;;;;43.75;39.95;;;7.10;99.90;;;;;;4948374;28;20188;-70
2024/03/17 08:06:13;;;;;;;43.05;39.28;;;7.70;99.90;;;;;;4969308;28;20910;-69
2024/03/17 08:08:39;;;;;;;47.55;43.25;;;8.10;99.90;;;;;;4950423;28;20058;-70
2024/03/17 08:11:05;;;;;;;45.38;41.42;;;8.40;99.90;;;;;;4953827;28;20101;-70
2024/03/17 08:13:34;;;;;;;38.63;35.00;;;8.60;99.90;;;;;;4953488;28;20562;-70
2024/03/17 08:16:06;;;;;;;42.53;38.50;;;8.60;99.90;;;;;;4966719;28;20042;-70
2024/03/17 08:18:32;;;;;;;40.42;36.65;;;8.60;99.90;;;;;;4953907;28;20046;-70
2024/03/17 08:21:04;;;;;;;41.22;37.35;;;8.70;99.90;;;;;;4952609;28;20517;-70
2024/03/17 08:23:30;;;;;;;40.17;36.50;;;9.00;99.90;;;;;;4973403;28;20056;-68
2024/03/17 08:25:58;;;;;;;40.97;37.30;;;9.30;99.90;;;;;;4968926;28;20050;-68
2024/03/17 08:28:25;;;;;;;40.55;36.47;;;9.40;99.90;;;;;;4960424;28;20076;-71
2024/03/17 08:30:56;;;;;;;40.75;36.55;;;9.40;99.90;;;;;;4947162;28;20074;-69
2024/03/17 08:33:23;;;;;;;40.63;36.92;;;9.50;99.90;;;;;;4938419;28;20059;-70
2024/03/17 08:35:59;;;;;;;39.58;36.05;;;9.70;99.90;;;;;;4921721;28;20088;-70
2024/03/17 08:38:28;;;;;;;40.17;36.25;;;9.70;99.90;;;;;;4971434;28;20050;-70
2024/03/17 08:40:55;;;;;;;39.72;36.08;;;9.90;99.90;;;;;;4962932;28;20046;-70
2024/03/17 08:43:22;;;;;;;41.22;37.53;;;10.00;99.90;;;;;;4952409;28;20049;-69
2024/03/17 08:45:59;;;;;;;41.50;37.78;;;10.10;99.90;;;;;;4963948;28;20053;-70
2024/03/17 08:48:28;;;;;;;40.20;36.95;;;10.20;99.90;;;;;;4959432;28;20057;-69
2024/03/17 08:50:55;;;;;;;40.80;36.72;;;10.20;99.90;;;;;;4957718;28;20049;-70
2024/03/17 08:53:22;;;;;;;42.33;38.65;;;10.20;99.90;;;;;;4969489;28;20060;-71
2024/03/17 08:55:49;;;;;;;45.65;41.88;;;10.40;99.90;;;;;;4953245;28;20047;-70
2024/03/17 08:58:15;;;;;;;44.28;40.67;;;10.50;99.90;;;;;;4971452;28;20416;-70
2024/03/17 09:00:42;;;;;;;43.55;39.83;;;10.60;99.90;;;;;;4952496;28;20050;-71
2024/03/17 09:03:12;;;;;;;42.33;38.40;;;10.60;99.90;;;;;;4949518;28;20115;-69
2024/03/17 09:05:43;;;;;;;40.60;37.00;;;10.40;99.90;;;;;;4948610;28;20054;-70
2024/03/17 09:08:21;;;;;;;45.70;41.75;;;10.20;99.90;;;;;;4950197;28;20719;-70
2024/03/17 09:10:53;;;;;;;44.08;40.25;;;10.00;99.90;;;;;;4952987;28;20046;-71
2024/03/17 09:13:23;;;;;;;43.00;39.22;;;9.80;99.90;;;;;;4952472;28;20057;-70
2024/03/17 09:15:53;;;;;;;39.75;36.25;;;9.80;99.90;;;;;;4951298;28;20788;-70
2024/03/17 09:18:20;;;;;;;39.45;35.85;;;9.90;99.90;;;;;;4961426;28;20495;-69
2024/03/17 09:20:54;;;;;;;40.30;36.90;;;10.20;99.90;;;;;;4963085;28;20169;-71
2024/03/17 09:23:21;;;;;;;41.45;38.20;;;10.50;99.90;;;;;;4955160;28;20487;-69
2024/03/17 09:25:59;;;;;;;42.15;38.40;;;10.80;99.90;;;;;;4952773;28;20137;-71
2024/03/17 09:28:25;;;;;;;41.92;38.40;;;11.00;99.90;;;;;;4959509;28;20046;-70
2024/03/17 09:30:52;;;;;;;43.58;39.75;;;10.90;99.90;;;;;;4955102;28;20577;-69
2024/03/17 09:33:20;;;;;;;41.70;38.10;;;10.80;99.90;;;;;;4970636;28;20054;-70
2024/03/17 09:36:00;;;;;;;43.17;39.10;;;10.80;99.90;;;;;;4952897;28;20053;-71
2024/03/17 09:38:30;;;;;;;43.42;39.88;;;11.30;99.90;;;;;;4973511;28;20112;-70
2024/03/17 09:41:03;;;;;;;46.13;42.70;;;11.30;99.90;;;;;;4950784;28;20077;-69
2024/03/17 09:43:33;;;;;;;52.20;47.97;;;10.70;99.90;;;;;;4967935;28;20050;-70
2024/03/17 09:46:03;;;;;;;50.28;46.40;;;10.50;99.90;;;;;;4931568;28;20733;-70
2024/03/17 09:48:29;;;;;;;49.63;45.50;;;10.20;99.90;;;;;;4928319;28;20062;-70
2024/03/17 09:50:56;;;;;;;43.80;40.30;;;10.30;99.90;;;;;;4958318;28;20047;-69
2024/03/17 09:53:28;;;;;;;47.08;43.50;;;10.20;99.90;;;;;;4972235;28;20058;-69
2024/03/17 09:56:00;;;;;;;49.10;45.05;;;10.20;99.90;;;;;;4952512;28;20042;-70
2024/03/17 09:58:27;;;;;;;50.47;46.42;;;10.20;99.90;;;;;;4950776;28;20046;-70
2024/03/17 10:00:53;;;;;;;47.58;43.67;;;10.30;99.90;;;;;;4963271;28;20053;-71
2024/03/17 10:03:42;;;;;;;46.70;42.63;;;10.30;99.90;;;;;;4954469;28;20046;-71
2024/03/17 10:06:11;;;;;;;46.38;42.67;;;10.30;99.90;;;;;;4937857;28;20117;-70
2024/03/17 10:08:45;;;;;;;45.15;41.45;;;10.50;99.90;;;;;;4950637;28;20054;-69
2024/03/17 10:11:12;;;;;;;45.75;41.58;;;10.50;99.90;;;;;;4960343;28;20046;-70
2024/03/17 10:13:38;;;;;;;44.97;40.92;;;10.70;99.90;;;;;;4956282;28;20073;-70
2024/03/17 10:16:04;;;;;;;46.25;41.90;;;10.60;99.90;;;;;;4969238;28;20039;-70
2024/03/17 10:18:31;;;;;;;46.05;42.03;;;10.70;99.90;;;;;;4956345;28;20054;-70
2024/03/17 10:20:58;;;;;;;49.28;45.13;;;10.90;99.90;;;;;;4941812;28;20054;-71
2024/03/17 10:23:25;;;;;;;46.17;42.58;;;11.20;99.90;;;;;;4983559;28;20061;-71
2024/03/17 10:25:51;;;;;;;44.10;40.53;;;11.40;99.90;;;;;;4954245;28;20043;-70
2024/03/17 10:28:20;;;;;;;45.38;41.35;;;11.10;99.90;;;;;;4969459;28;20057;-70
2024/03/17 10:31:01;;;;;;;47.92;43.95;;;11.10;99.90;;;;;;4965537;28;20054;-70
2024/03/17 10:33:27;;;;;;;44.25;40.58;;;11.10;99.90;;;;;;4963693;28;20107;-70
2024/03/17 10:36:01;;;;;;;47.92;43.58;;;10.90;99.90;;;;;;4939441;28;20043;-70
2024/03/17 10:38:29;;;;;;;46.97;43.28;;;10.70;99.90;;;;;;4945163;28;20074;-71
2024/03/17 10:40:55;;;;;;;46.88;42.53;;;10.80;99.90;;;;;;4935987;28;20463;-70
2024/03/17 10:43:25;;;;;;;46.28;42.63;;;10.90;99.90;;;;;;4964479;28;20055;-70
2024/03/17 10:45:55;;;;;;;46.42;42.60;;;11.10;99.90;;;;;;4951457;28;20074;-70
2024/03/17 10:48:27;;;;;;;45.63;41.90;;;11.20;99.90;;;;;;4935543;28;20047;-69
2024/03/17 10:51:00;;;;;;;45.92;42.10;;;11.30;99.90;;;;;;4971996;28;20038;-71
2024/03/17 10:53:27;;;;;;;46.65;42.80;;;11.50;99.90;;;;;;4953966;28;20042;-71
2024/03/17 10:56:05;;;;;;;46.72;42.78;;;11.50;99.90;;;;;;4966252;28;20049;-70
2024/03/17 10:58:34;;;;;;;47.05;42.95;;;10.90;99.90;;;;;;4973192;28;20086;-70
2024/03/17 11:01:06;;;;;;;51.10;46.78;;;10.70;99.90;;;;;;4951263;28;21029;-68
2024/03/17 11:03:33;;;;;;;50.25;46.35;;;10.90;99.90;;;;;;4951198;28;20731;-70
2024/03/17 11:06:03;;;;;;;48.83;44.75;;;11.10;99.90;;;;;;4965776;28;20047;-70
2024/03/17 11:08:34;;;;;;;48.88;44.60;;;11.30;99.90;;;;;;4953878;28;20537;-71
2024/03/17 11:11:03;;;;;;;49.88;45.78;;;11.30;99.90;;;;;;4936670;28;20054;-70
2024/03/17 11:13:31;;;;;;;46.58;42.63;;;11.50;99.90;;;;;;4949897;28;20050;-70
2024/03/17 11:15:58;;;;;;;48.80;45.03;;;11.40;99.90;;;;;;4966011;28;20062;-71
2024/03/17 11:18:24;;;;;;;47.95;43.67;;;11.70;99.90;;;;;;4961375;28;20057;-70
2024/03/17 11:20:57;;;;;;;46.47;42.60;;;12.00;99.90;;;;;;4938552;28;20085;-68
2024/03/17 11:23:30;;;;;;;47.88;43.63;;;12.20;99.90;;;;;;4969226;28;20043;-71
2024/03/17 11:25:58;;;;;;;48.35;44.30;;;12.10;99.90;;;;;;4950728;28;20701;-71
2024/03/17 11:28:43;;;;;;;45.25;41.75;;;12.20;99.90;;;;;;4948578;28;20050;-71
2024/03/17 11:31:32;;;;;;;46.92;43.20;;;12.30;99.90;;;;;;4966482;28;21536;-70
2024/03/17 11:34:07;;;;;;;47.00;42.72;;;12.10;99.90;;;;;;4949488;28;20054;-70
2024/03/17 11:36:36;;;;;;;47.05;43.28;;;12.20;99.90;;;;;;4956193;28;20058;-71
2024/03/17 11:39:16;;;;;;;47.20;43.40;;;12.20;99.90;;;;;;4950707;28;20096;-69
2024/03/17 11:41:46;;;;;;;46.95;42.95;;;12.40;99.90;;;;;;4972828;28;20057;-70
2024/03/17 11:44:16;;;;;;;46.67;42.92;;;12.50;99.90;;;;;;4980044;28;20050;-70
2024/03/17 11:46:45;;;;;;;48.03;44.22;;;12.60;99.90;;;;;;4950216;28;20050;-70
2024/03/17 11:49:21;;;;;;;49.15;45.45;;;12.60;99.90;;;;;;4950796;28;20056;-69
2024/03/17 11:51:49;;;;;;;46.92;43.08;;;12.30;99.90;;;;;;4953676;28;20042;-69
2024/03/17 11:54:18;;;;;;;46.67;42.97;;;12.30;99.90;;;;;;4934204;28;20050;-69
2024/03/17 11:56:46;;;;;;;48.10;44.10;;;12.40;99.90;;;;;;4953230;28;20077;-69
2024/03/17 11:59:12;;;;;;;49.92;45.72;;;12.30;99.90;;;;;;4948071;28;20054;-69
2024/03/17 12:01:40;;;;;;;48.50;44.47;;;12.30;99.90;;;;;;4948491;28;20548;-70
2024/03/17 12:04:07;;;;;;;46.75;42.72;;;12.50;99.90;;;;;;4952574;28;20046;-69
2024/03/17 12:06:34;;;;;;;51.03;46.42;;;12.20;99.90;;;;;;4958399;28;20761;-70
2024/03/17 12:09:31;;;;;;;49.03;44.97;;;12.10;99.90;;;;;;4968408;28;20042;-71
2024/03/17 12:12:04;;;;;;;49.58;45.65;;;12.20;99.90;;;;;;4964680;28;20578;-70
2024/03/17 12:14:31;;;;;;;49.78;45.03;;;12.30;99.90;;;;;;4970059;28;20892;-70
2024/03/17 12:17:08;;;;;;;49.15;45.35;;;12.40;99.90;;;;;;4957243;28;20626;-70
2024/03/17 12:19:35;;;;;;;49.83;45.92;;;12.60;99.90;;;;;;4954939;28;20046;-71
2024/03/17 12:22:03;;;;;;;50.42;46.40;;;12.60;99.90;;;;;;4943370;28;20117;-70
2024/03/17 12:24:31;;;;;;;49.85;45.80;;;12.50;99.90;;;;;;4975334;28;20045;-71
2024/03/17 12:27:02;;;;;;;49.35;45.25;;;12.20;99.90;;;;;;4953706;28;20100;-69
2024/03/17 12:29:36;;;;;;;48.22;44.33;;;12.20;99.90;;;;;;4945179;28;20158;-70
2024/03/17 12:32:07;;;;;;;47.60;43.72;;;12.20;99.90;;;;;;4949806;28;20043;-70
2024/03/17 12:34:34;;;;;;;49.92;46.03;;;12.10;99.90;;;;;;4968399;28;20062;-70
2024/03/17 12:37:01;;;;;;;49.97;45.85;;;11.90;99.90;;;;;;4928734;28;20090;-70
2024/03/17 12:39:29;;;;;;;48.20;44.63;;;11.90;99.90;;;;;;4954133;28;20047;-71
2024/03/17 12:42:10;;;;;;;49.50;45.47;;;12.10;99.90;;;;;;4941178;28;20540;-70